createdAt,value
2023-03-12T00:02:15.040Z,1.13
2023-03-12T00:04:42.146Z,1.92
2023-03-12T00:07:09.545Z,1.52
2023-03-12T00:09:39.214Z,2.05
2023-03-12T00:12:06.879Z,1.00
2023-03-12T00:14:34.195Z,1.73
2023-03-12T00:17:01.372Z,1.50
2023-03-12T00:19:28.468Z,2.70
2023-03-12T00:21:55.456Z,2.60
2023-03-12T00:24:22.469Z,3.60
2023-03-12T00:26:49.447Z,3.55
2023-03-12T00:29:16.451Z,3.25
2023-03-12T00:31:43.479Z,3.58
2023-03-12T00:34:11.164Z,3.85
2023-03-12T00:36:40.705Z,3.58
2023-03-12T00:39:07.862Z,3.13
2023-03-12T00:41:35.051Z,2.85
2023-03-12T00:44:02.209Z,2.72
2023-03-12T00:46:29.363Z,3.40
2023-03-12T00:48:56.554Z,3.53
2023-03-12T00:51:23.595Z,4.72
2023-03-12T00:53:50.525Z,3.58
2023-03-12T00:56:17.621Z,3.42
2023-03-12T00:58:44.667Z,3.85
2023-03-12T01:01:11.894Z,3.67
2023-03-12T01:03:39.041Z,4.32
2023-03-12T01:06:07.881Z,4.45
2023-03-12T01:08:34.860Z,2.97
2023-03-12T01:11:02.032Z,3.67
2023-03-12T01:13:29.766Z,3.22
2023-03-12T01:15:56.924Z,2.90
2023-03-12T01:18:23.890Z,3.35
2023-03-12T01:20:51.491Z,3.08
2023-03-12T01:23:18.634Z,3.28
2023-03-12T01:25:47.510Z,4.15
2023-03-12T01:28:14.555Z,2.80
2023-03-12T01:30:41.528Z,4.50
2023-03-12T01:33:08.569Z,4.13
2023-03-12T01:35:40.594Z,3.65
2023-03-12T01:38:12.841Z,3.55
2023-03-12T01:40:41.496Z,3.90
2023-03-12T01:43:34.087Z,3.35
2023-03-12T01:46:08.135Z,3.35
2023-03-12T01:48:43.453Z,3.58
2023-03-12T01:51:14.193Z,4.13
2023-03-12T01:53:45.260Z,3.08
2023-03-12T01:56:14.113Z,3.40
2023-03-12T01:58:47.142Z,3.80
2023-03-12T02:01:19.266Z,3.50
2023-03-12T02:03:49.965Z,3.90
2023-03-12T02:06:22.846Z,3.58
2023-03-12T02:08:51.281Z,3.55
2023-03-12T02:11:18.276Z,3.22
2023-03-12T02:13:45.330Z,3.25
2023-03-12T02:16:12.328Z,3.28
2023-03-12T02:18:39.418Z,3.25
2023-03-12T02:21:25.205Z,3.10
2023-03-12T02:24:03.212Z,3.67
2023-03-12T02:26:33.243Z,3.20
2023-03-12T02:29:01.687Z,3.38
2023-03-12T02:31:44.830Z,4.57
2023-03-12T02:34:12.991Z,3.03
2023-03-12T02:36:40.056Z,3.17
2023-03-12T02:39:07.410Z,2.92
2023-03-12T02:41:40.289Z,3.30
2023-03-12T02:44:11.778Z,2.67
2023-03-12T02:46:44.734Z,2.40
2023-03-12T02:49:13.301Z,3.60
2023-03-12T02:51:42.790Z,3.45
2023-03-12T02:54:10.363Z,3.70
2023-03-12T02:56:38.620Z,2.80
2023-03-12T02:59:07.185Z,2.97
2023-03-12T03:01:37.698Z,3.50
2023-03-12T03:04:08.271Z,3.10
2023-03-12T03:06:38.226Z,3.00
2023-03-12T03:09:05.667Z,3.15
2023-03-12T03:11:32.809Z,5.70
2023-03-12T03:14:04.370Z,3.42
2023-03-12T03:16:31.382Z,2.97
2023-03-12T03:18:59.272Z,3.15
2023-03-12T03:21:26.219Z,2.90
2023-03-12T03:23:53.273Z,3.47
2023-03-12T03:26:22.759Z,3.67
2023-03-12T03:28:50.897Z,2.88
2023-03-12T03:31:18.291Z,3.50
2023-03-12T03:33:45.897Z,2.72
2023-03-12T03:36:14.977Z,2.95
2023-03-12T03:38:50.597Z,2.78
2023-03-12T03:41:20.233Z,3.20
2023-03-12T03:43:48.016Z,2.80
2023-03-12T03:46:18.883Z,2.60
2023-03-12T03:48:51.034Z,3.33
2023-03-12T03:51:18.334Z,3.40
2023-03-12T03:53:48.853Z,2.97
2023-03-12T03:56:16.670Z,2.40
2023-03-12T03:58:47.637Z,2.85
2023-03-12T04:01:16.462Z,2.30
2023-03-12T04:03:45.268Z,2.67
2023-03-12T04:06:12.986Z,2.53
2023-03-12T04:08:40.832Z,2.30
2023-03-12T04:11:18.149Z,2.80
2023-03-12T04:13:46.309Z,2.65
2023-03-12T04:16:16.671Z,3.10
2023-03-12T04:18:44.786Z,3.22
2023-03-12T04:21:14.082Z,2.80
2023-03-12T04:23:42.057Z,3.10
2023-03-12T04:26:10.982Z,3.10
2023-03-12T04:28:38.562Z,2.47
2023-03-12T04:31:09.138Z,3.25
2023-03-12T04:33:49.993Z,3.47
2023-03-12T04:36:17.861Z,3.25
2023-03-12T04:38:47.796Z,2.70
2023-03-12T04:41:17.717Z,3.30
2023-03-12T04:43:52.449Z,3.08
2023-03-12T04:46:20.674Z,3.00
2023-03-12T04:48:48.709Z,2.70
2023-03-12T04:51:16.066Z,3.00
2023-03-12T04:53:43.384Z,3.38
2023-03-12T04:56:12.117Z,2.95
2023-03-12T04:58:39.549Z,2.72
2023-03-12T05:01:07.459Z,3.50
2023-03-12T05:03:35.677Z,3.30
2023-03-12T05:06:02.765Z,3.25
2023-03-12T05:08:30.175Z,3.30
2023-03-12T05:10:57.343Z,3.03
2023-03-12T05:13:24.332Z,2.58
2023-03-12T05:15:55.781Z,2.55
2023-03-12T05:18:22.902Z,2.47
2023-03-12T05:21:09.851Z,2.90
2023-03-12T05:23:39.189Z,3.50
2023-03-12T05:26:06.826Z,2.40
2023-03-12T05:28:34.905Z,3.03
2023-03-12T05:31:10.671Z,3.80
2023-03-12T05:33:38.237Z,2.58
2023-03-12T05:36:05.971Z,2.10
2023-03-12T05:38:33.691Z,2.38
2023-03-12T05:41:00.640Z,2.40
2023-03-12T05:43:30.525Z,2.47
2023-03-12T05:46:04.004Z,2.88
2023-03-12T05:48:31.863Z,3.25
2023-03-12T05:50:59.051Z,2.88
2023-03-12T05:53:26.661Z,2.33
2023-03-12T05:55:54.187Z,3.42
2023-03-12T05:58:21.757Z,2.83
2023-03-12T06:00:49.833Z,2.75
2023-03-12T06:03:16.977Z,3.20
2023-03-12T06:05:45.622Z,3.25
2023-03-12T06:08:12.578Z,2.65
2023-03-12T06:10:40.695Z,3.22
2023-03-12T06:13:08.920Z,3.03
2023-03-12T06:15:36.065Z,3.05
2023-03-12T06:18:05.262Z,4.25
2023-03-12T06:20:33.030Z,3.70
2023-03-12T06:23:00.145Z,3.45
2023-03-12T06:25:27.336Z,3.80
2023-03-12T06:27:54.324Z,3.20
2023-03-12T06:30:21.642Z,2.72
2023-03-12T06:32:48.516Z,2.72
2023-03-12T06:35:15.808Z,3.63
2023-03-12T06:37:42.719Z,3.00
2023-03-12T06:40:11.057Z,3.30
2023-03-12T06:42:37.998Z,2.63
2023-03-12T06:45:06.271Z,3.20
2023-03-12T06:47:33.163Z,3.60
2023-03-12T06:50:00.149Z,3.40
2023-03-12T06:52:27.703Z,3.10
2023-03-12T06:54:54.678Z,2.88
2023-03-12T06:57:21.617Z,4.28
2023-03-12T06:59:50.507Z,3.88
2023-03-12T07:02:17.930Z,3.63
2023-03-12T07:04:44.937Z,3.97
2023-03-12T07:07:12.011Z,4.05
2023-03-12T07:09:39.063Z,3.67
2023-03-12T07:12:06.350Z,3.85
2023-03-12T07:14:33.311Z,3.60
2023-03-12T07:17:01.926Z,5.65
2023-03-12T07:19:30.360Z,4.53
2023-03-12T07:21:57.993Z,4.18
2023-03-12T07:24:24.963Z,4.38
2023-03-12T07:26:51.877Z,4.10
2023-03-12T07:29:18.895Z,5.93
2023-03-12T07:31:45.904Z,5.35
2023-03-12T07:34:13.640Z,4.57
2023-03-12T07:36:40.819Z,4.65
2023-03-12T07:39:08.872Z,4.95
2023-03-12T07:41:37.364Z,4.57
2023-03-12T07:44:04.714Z,5.20
2023-03-12T07:46:31.814Z,5.32
2023-03-12T07:48:58.804Z,4.72
2023-03-12T07:51:25.707Z,5.18
2023-03-12T07:53:52.856Z,5.15
2023-03-12T07:56:19.921Z,5.05
2023-03-12T07:58:47.030Z,5.00
2023-03-12T08:01:14.229Z,5.82
2023-03-12T08:03:41.294Z,5.93
2023-03-12T08:06:08.356Z,4.97
2023-03-12T08:08:36.388Z,5.93
2023-03-12T08:11:05.175Z,5.35
2023-03-12T08:13:32.161Z,5.38
2023-03-12T08:15:59.280Z,5.00
2023-03-12T08:18:27.110Z,5.35
2023-03-12T08:20:54.960Z,5.32
2023-03-12T08:23:22.510Z,5.45
2023-03-12T08:25:51.083Z,6.05
2023-03-12T08:28:19.447Z,5.35
2023-03-12T08:30:55.720Z,6.97
2023-03-12T08:33:22.817Z,6.00
2023-03-12T08:35:50.339Z,5.88
2023-03-12T08:38:17.724Z,6.10
2023-03-12T08:40:44.909Z,5.53
2023-03-12T08:43:11.944Z,5.90
2023-03-12T08:45:39.026Z,7.30
2023-03-12T08:48:08.044Z,6.40
2023-03-12T08:50:35.033Z,5.82
2023-03-12T08:53:01.923Z,6.32
2023-03-12T08:55:28.857Z,7.57
2023-03-12T08:57:56.570Z,6.88
2023-03-12T09:00:23.545Z,6.88
2023-03-12T09:02:52.170Z,7.85
2023-03-12T09:05:19.568Z,7.72
2023-03-12T09:07:46.622Z,7.07
2023-03-12T09:10:13.577Z,7.13
2023-03-12T09:12:40.525Z,6.90
2023-03-12T09:15:09.096Z,6.88
2023-03-12T09:17:36.136Z,6.90
2023-03-12T09:20:07.324Z,7.55
2023-03-12T09:22:36.909Z,7.65
2023-03-12T09:25:05.627Z,7.43
2023-03-12T09:27:44.680Z,6.60
2023-03-12T09:30:19.054Z,7.13
2023-03-12T09:32:46.676Z,7.32
2023-03-12T09:35:15.791Z,7.47
2023-03-12T09:37:43.092Z,8.85
2023-03-12T09:40:19.949Z,8.02
2023-03-12T09:42:55.948Z,8.10
2023-03-12T09:45:31.402Z,7.97
2023-03-12T09:48:02.449Z,8.63
2023-03-12T09:50:33.380Z,8.18
2023-03-12T09:53:12.867Z,9.57
2023-03-12T09:55:42.513Z,10.27
2023-03-12T09:58:24.516Z,9.52
2023-03-12T10:01:12.087Z,9.18
2023-03-12T10:03:49.721Z,10.23
2023-03-12T10:06:20.466Z,9.23
2023-03-12T10:09:03.898Z,11.02
2023-03-12T10:11:39.915Z,10.55
2023-03-12T10:14:35.234Z,11.52
2023-03-12T10:17:33.184Z,9.65
2023-03-12T10:20:33.843Z,11.65
2023-03-12T10:23:23.225Z,12.65
2023-03-12T10:26:17.336Z,11.30
2023-03-12T10:28:50.705Z,12.85
2023-03-12T10:31:28.423Z,12.32
2023-03-12T10:34:01.946Z,13.55
2023-03-12T10:36:39.436Z,12.77
2023-03-12T10:39:20.096Z,13.05
2023-03-12T10:41:48.866Z,12.23
2023-03-12T10:44:24.795Z,13.70
2023-03-12T10:47:12.991Z,12.18
2023-03-12T10:49:40.039Z,13.93
2023-03-12T10:52:20.254Z,13.07
2023-03-12T10:54:51.414Z,12.18
2023-03-12T10:57:19.363Z,14.43
2023-03-12T10:59:48.542Z,14.98
2023-03-12T11:02:45.799Z,13.45
2023-03-12T11:05:51.479Z,14.43
2023-03-12T11:08:36.150Z,15.07
2023-03-12T11:11:05.500Z,14.73
2023-03-12T11:13:41.849Z,16.15
2023-03-12T11:16:17.748Z,14.95
2023-03-12T11:19:08.343Z,15.70
2023-03-12T11:21:40.350Z,15.93
2023-03-12T11:24:11.544Z,15.68
2023-03-12T11:26:50.321Z,16.15
2023-03-12T11:29:22.972Z,15.38
2023-03-12T11:32:15.549Z,16.58
2023-03-12T11:34:43.337Z,17.30
2023-03-12T11:37:27.376Z,17.00
2023-03-12T11:40:34.151Z,16.73
2023-03-12T11:43:43.767Z,16.02
2023-03-12T11:46:20.043Z,16.77
2023-03-12T11:49:17.676Z,18.10
2023-03-12T11:51:53.358Z,17.42
2023-03-12T11:57:52.055Z,17.83
2023-03-12T12:00:26.360Z,17.77
2023-03-12T12:03:27.314Z,17.80
2023-03-12T12:06:18.417Z,20.30
2023-03-12T12:09:27.696Z,17.77
2023-03-12T12:12:25.064Z,21.15
2023-03-12T12:15:01.122Z,18.85
2023-03-12T12:18:00.133Z,16.83
2023-03-12T12:20:44.500Z,16.90
2023-03-12T12:23:39.206Z,15.15
2023-03-12T12:26:13.498Z,13.90
2023-03-12T12:28:58.824Z,12.90
2023-03-12T12:31:40.711Z,14.07
2023-03-12T12:34:28.562Z,12.35
2023-03-12T12:37:12.081Z,16.02
2023-03-12T12:39:50.118Z,13.07
2023-03-12T12:42:26.842Z,11.98
2023-03-12T12:44:55.377Z,11.77
2023-03-12T12:47:49.321Z,12.05
2023-03-12T12:50:25.590Z,10.85
2023-03-12T12:53:16.203Z,10.23
2023-03-12T12:56:15.393Z,10.23
2023-03-12T12:59:25.045Z,13.07
2023-03-12T13:01:56.095Z,13.73
2023-03-12T13:04:28.796Z,10.35
2023-03-12T13:07:03.246Z,13.23
2023-03-12T13:09:39.403Z,13.27
2023-03-12T13:12:43.561Z,10.43
2023-03-12T13:15:31.283Z,10.80
2023-03-12T13:18:23.307Z,11.93
2023-03-12T13:20:53.170Z,10.18
2023-03-12T13:23:33.139Z,9.85
2023-03-12T13:26:39.234Z,9.50
2023-03-12T13:29:21.490Z,9.90
2023-03-12T13:31:48.403Z,10.88
2023-03-12T13:34:18.155Z,12.95
2023-03-12T13:36:52.574Z,10.40
2023-03-12T13:39:29.717Z,11.10
2023-03-12T13:41:58.418Z,11.35
2023-03-12T13:44:31.205Z,11.48
2023-03-12T13:47:27.499Z,10.43
2023-03-12T13:50:03.542Z,10.68
2023-03-12T13:52:47.074Z,9.18
2023-03-12T13:55:13.825Z,9.55
2023-03-12T13:57:56.660Z,10.60
2023-03-12T14:00:30.635Z,11.65
2023-03-12T14:03:09.834Z,8.80
2023-03-12T14:05:54.493Z,11.38
2023-03-12T14:09:08.351Z,8.85
2023-03-12T14:12:22.504Z,9.45
2023-03-12T14:15:10.267Z,9.80
2023-03-12T14:17:38.808Z,11.52
2023-03-12T14:20:13.242Z,7.65
2023-03-12T14:22:44.786Z,8.15
2023-03-12T14:25:24.241Z,6.75
2023-03-12T14:27:51.418Z,7.40
2023-03-12T14:30:47.686Z,6.45
2023-03-12T14:33:16.014Z,7.97
2023-03-12T14:35:57.202Z,8.35
2023-03-12T14:38:43.421Z,6.68
2023-03-12T14:43:46.400Z,5.00
2023-03-12T14:46:24.729Z,5.38
2023-03-12T14:48:54.998Z,5.13
2023-03-12T14:51:29.511Z,6.60
2023-03-12T14:53:57.381Z,5.13
2023-03-12T14:56:35.311Z,5.28
2023-03-12T14:59:23.444Z,4.28
2023-03-12T15:01:50.797Z,6.50
2023-03-12T15:04:23.830Z,4.90
2023-03-12T15:06:59.750Z,3.42
2023-03-12T15:09:30.683Z,3.72
2023-03-12T15:12:19.767Z,3.63
2023-03-12T15:14:49.569Z,2.78
2023-03-12T15:17:22.532Z,4.85
2023-03-12T15:19:50.427Z,3.40
2023-03-12T15:22:21.398Z,2.95
2023-03-12T15:24:48.913Z,3.38
2023-03-12T15:27:28.212Z,7.13
2023-03-12T15:29:57.109Z,4.35
2023-03-12T15:32:26.029Z,3.75
2023-03-12T15:34:56.486Z,3.47
2023-03-12T15:37:41.439Z,3.45
2023-03-12T15:40:21.505Z,3.10
2023-03-12T15:42:49.859Z,3.72
2023-03-12T15:45:46.233Z,4.68
2023-03-12T15:48:24.580Z,4.50
2023-03-12T15:50:51.567Z,3.25
2023-03-12T15:53:18.532Z,4.57
2023-03-12T15:56:20.894Z,4.25
2023-03-12T15:58:59.359Z,3.65
2023-03-12T16:01:28.175Z,3.85
2023-03-12T16:03:55.932Z,5.68
2023-03-12T16:06:27.967Z,3.78
2023-03-12T16:09:00.290Z,2.75
2023-03-12T16:11:30.953Z,3.05
2023-03-12T16:14:13.914Z,4.60
2023-03-12T16:16:41.170Z,3.78
2023-03-12T16:19:18.077Z,3.78
2023-03-12T16:21:45.590Z,3.80
2023-03-12T16:24:12.659Z,4.07
2023-03-12T16:26:51.423Z,6.28
2023-03-12T16:29:19.778Z,3.22
2023-03-12T16:31:56.115Z,3.13
2023-03-12T16:34:24.140Z,5.10
2023-03-12T16:36:51.553Z,4.50
2023-03-12T16:39:19.097Z,6.93
2023-03-12T16:41:47.438Z,5.32
2023-03-12T16:44:19.683Z,5.05
2023-03-12T16:46:47.254Z,3.03
2023-03-12T16:49:17.142Z,3.55
2023-03-12T16:51:44.488Z,3.42
2023-03-12T16:54:12.427Z,4.43
2023-03-12T16:56:45.440Z,4.97
2023-03-12T16:59:26.012Z,4.78
2023-03-12T17:01:53.848Z,3.80
2023-03-12T17:04:21.007Z,4.75
2023-03-12T17:06:48.161Z,5.70
2023-03-12T17:09:15.211Z,4.35
2023-03-12T17:11:43.117Z,4.15
2023-03-12T17:14:19.860Z,4.68
2023-03-12T17:16:46.952Z,4.82
2023-03-12T17:19:14.301Z,5.25
2023-03-12T17:21:41.582Z,5.63
2023-03-12T17:24:11.170Z,5.15
2023-03-12T17:26:38.189Z,4.95
2023-03-12T17:29:05.473Z,5.15
2023-03-12T17:31:32.684Z,4.32
2023-03-12T17:33:59.830Z,6.35
2023-03-12T17:36:26.863Z,3.67
2023-03-12T17:38:53.826Z,4.82
2023-03-12T17:41:26.429Z,6.32
2023-03-12T17:43:55.343Z,4.75
2023-03-12T17:46:22.528Z,5.65
2023-03-12T17:48:49.693Z,4.65
2023-03-12T17:51:16.931Z,5.40
2023-03-12T17:53:44.291Z,4.22
2023-03-12T17:56:12.792Z,5.97
2023-03-12T17:58:40.424Z,6.07
2023-03-12T18:01:08.243Z,6.55
2023-03-12T18:03:35.351Z,4.03
2023-03-12T18:06:02.902Z,6.47
2023-03-12T18:08:29.892Z,7.50
2023-03-12T18:10:56.861Z,6.18
2023-03-12T18:13:23.787Z,6.43
2023-03-12T18:15:54.600Z,10.23
2023-03-12T18:18:22.657Z,6.88
2023-03-12T18:20:49.982Z,6.35
2023-03-12T18:23:18.160Z,4.65
2023-03-12T18:25:46.256Z,8.23
2023-03-12T18:28:14.106Z,6.80
2023-03-12T18:30:41.200Z,5.63
2023-03-12T18:33:08.141Z,8.57
2023-03-12T18:35:35.243Z,5.43
2023-03-12T18:38:02.345Z,7.68
2023-03-12T18:40:30.004Z,6.95
2023-03-12T18:43:00.656Z,7.00
2023-03-12T18:45:28.651Z,6.82
2023-03-12T18:47:56.024Z,7.20
2023-03-12T18:50:23.434Z,7.70
2023-03-12T18:52:50.458Z,6.95
2023-03-12T18:55:17.791Z,7.50
2023-03-12T18:57:47.176Z,7.03
2023-03-12T19:00:20.193Z,5.78
2023-03-12T19:02:48.500Z,6.82
2023-03-12T19:05:16.471Z,7.38
2023-03-12T19:07:43.801Z,6.40
2023-03-12T19:10:12.329Z,6.82
2023-03-12T19:12:51.653Z,6.90
2023-03-12T19:15:21.242Z,8.63
2023-03-12T19:17:48.227Z,6.93
2023-03-12T19:20:15.639Z,9.57
2023-03-12T19:22:42.628Z,7.65
2023-03-12T19:25:10.042Z,8.90
2023-03-12T19:27:37.045Z,8.73
2023-03-12T19:30:05.525Z,8.57
2023-03-12T19:32:42.570Z,8.63
2023-03-12T19:35:13.758Z,9.38
2023-03-12T19:37:42.311Z,10.20
2023-03-12T19:40:11.016Z,9.60
2023-03-12T19:42:38.293Z,10.88
2023-03-12T19:45:05.929Z,9.57
2023-03-12T19:47:33.368Z,12.07
2023-03-12T19:50:00.746Z,10.20
2023-03-12T19:52:27.962Z,9.25
2023-03-12T19:55:04.241Z,11.05
2023-03-12T19:57:33.368Z,15.68
2023-03-12T20:00:00.333Z,11.15
2023-03-12T20:02:27.593Z,8.93
2023-03-12T20:04:55.509Z,8.30
2023-03-12T20:07:22.721Z,8.00
2023-03-12T20:09:49.741Z,9.43
2023-03-12T20:12:16.769Z,9.30
2023-03-12T20:14:43.786Z,9.15
2023-03-12T20:17:12.233Z,11.27
2023-03-12T20:19:40.244Z,11.02
2023-03-12T20:22:07.728Z,6.53
2023-03-12T20:24:35.244Z,6.30
2023-03-12T20:27:04.011Z,9.65
2023-03-12T20:29:31.057Z,8.45
2023-03-12T20:31:58.146Z,5.50
2023-03-12T20:34:25.371Z,6.50
2023-03-12T20:36:52.386Z,8.25
2023-03-12T20:39:19.592Z,5.85
2023-03-12T20:41:46.554Z,7.05
2023-03-12T20:44:13.636Z,6.75
2023-03-12T20:46:40.622Z,5.95
2023-03-12T20:49:07.761Z,6.47
2023-03-12T20:51:34.694Z,5.65
2023-03-12T20:54:01.833Z,5.13
2023-03-12T20:56:28.874Z,5.70
2023-03-12T20:58:55.962Z,7.88
2023-03-12T21:01:23.053Z,7.15
2023-03-12T21:03:50.047Z,6.30
2023-03-12T21:06:17.111Z,5.88
2023-03-12T21:08:44.711Z,5.75
2023-03-12T21:11:11.731Z,7.30
2023-03-12T21:13:38.651Z,5.50
2023-03-12T21:16:07.595Z,7.95
2023-03-12T21:18:35.024Z,6.70
2023-03-12T21:21:07.415Z,5.88
2023-03-12T21:23:35.656Z,7.35
2023-03-12T21:26:08.883Z,4.40
2023-03-12T21:28:36.442Z,4.22
2023-03-12T21:31:08.865Z,4.13
2023-03-12T21:33:36.116Z,5.75
2023-03-12T21:36:08.861Z,4.55
2023-03-12T21:38:36.998Z,6.15
2023-03-12T21:41:12.384Z,7.63
2023-03-12T21:43:40.274Z,6.50
2023-03-12T21:46:14.361Z,7.07
2023-03-12T21:48:45.080Z,6.55
2023-03-12T21:51:15.124Z,5.97
2023-03-12T21:53:42.555Z,5.95
2023-03-12T21:56:10.860Z,6.28
2023-03-12T21:58:38.124Z,4.93
2023-03-12T22:01:16.880Z,4.75
2023-03-12T22:03:45.912Z,6.50
2023-03-12T22:06:15.029Z,4.57
2023-03-12T22:08:43.731Z,5.10
2023-03-12T22:11:10.791Z,5.60
2023-03-12T22:13:38.182Z,6.15
2023-03-12T22:16:08.375Z,4.50
2023-03-12T22:18:41.115Z,4.85
2023-03-12T22:21:09.058Z,6.32
2023-03-12T22:23:37.410Z,5.65
2023-03-12T22:26:06.444Z,5.78
2023-03-12T22:28:34.244Z,5.38
2023-03-12T22:31:07.588Z,5.65
2023-03-12T22:33:36.068Z,5.22
2023-03-12T22:36:11.543Z,6.03
2023-03-12T22:38:39.677Z,4.82
2023-03-12T22:41:27.895Z,4.53
2023-03-12T22:43:57.879Z,4.30
2023-03-12T22:46:25.926Z,5.63
2023-03-12T22:48:56.030Z,4.43
2023-03-12T22:51:24.412Z,4.50
2023-03-12T22:53:52.329Z,4.95
2023-03-12T22:56:19.397Z,5.20
2023-03-12T22:58:47.606Z,5.78
2023-03-12T23:01:18.872Z,5.32
2023-03-12T23:03:47.279Z,3.97
2023-03-12T23:06:26.756Z,3.83
2023-03-12T23:08:57.208Z,4.03
2023-03-12T23:11:26.944Z,5.25
2023-03-12T23:13:54.647Z,4.28
2023-03-12T23:16:25.476Z,4.18
2023-03-12T23:18:53.316Z,4.72
2023-03-12T23:21:23.936Z,4.60
2023-03-12T23:23:51.789Z,4.13
2023-03-12T23:26:23.214Z,4.63
2023-03-12T23:28:53.476Z,4.88
2023-03-12T23:31:21.546Z,4.85
2023-03-12T23:33:48.892Z,4.35
2023-03-12T23:36:18.915Z,3.92
2023-03-12T23:38:47.501Z,4.07
2023-03-12T23:41:25.131Z,5.60
2023-03-12T23:43:53.124Z,3.92
2023-03-12T23:46:20.838Z,6.45
2023-03-12T23:48:48.396Z,4.00
2023-03-12T23:51:19.523Z,4.05
2023-03-12T23:53:49.960Z,3.65
2023-03-12T23:56:21.394Z,4.60
2023-03-12T23:58:49.938Z,4.75
